WEATHER DATA

YESTERDAY
Time Temp. Dewp. Hum. Wind dir Wind speed Wind gust Bar. 1h Prec. 24h Prec.
00:09 14.5 11.5 82 315 1.1 3.3 1017.6 0.0000 0.0000
00:19 14.5 11.5 82 309 1.1 3.1 1017.5 0.0000 0.0000
00:30 14.5 11.5 82 295 0.8 2.2 1017.5 0.0000 0.0000
00:40 14.5 11.5 82 312 1.1 3.3 1017.3 0.0000 0.0000
00:50 14.5 11.5 82 311 1.1 2.5 1017.3 0.0000 0.0000
00:59 14.4 11.4 82 303 0.8 3.1 1017.3 0.0000 0.0000
01:10 14.4 11.6 83 310 1.1 3.6 1017 0.0000 0.0000
01:20 14.3 11.5 83 319 1.1 2.5 1017.2 0.0000 0.0000
01:30 14.3 11.5 83 308 0.8 3.1 1017.3 0.0000 0.0000
01:40 14.3 11.5 83 317 1.1 2.5 1017.2 0.0000 0.0000
01:50 14.3 11.6 84 315 0.8 3.3 1017.1 0.0000 0.0000
02:00 14.3 11.6 84 311 0.8 3.1 1017.2 0.0000 0.0000
02:10 14.3 11.6 84 315 0.8 3.3 1017.2 0.0000 0.0000
02:21 14.3 11.6 84 302 0.3 1.9 1017.1 0.0000 0.0000
02:31 14.3 11.6 84 323 1.1 4.4 1017 0.0000 0.0000
02:40 14.3 11.8 85 296 0.8 3.1 1017.2 0.0000 0.0000
02:50 14.3 11.8 85 306 0.8 1.9 1017.2 0.0000 0.0000
03:01 14.3 11.8 85 315 0.8 3.1 1017.4 0.0000 0.0000
03:11 14.3 11.8 85 315 0.8 2.2 1017.2 0.0000 0.0000
03:21 14.3 11.8 85 308 0.8 3.3 1017 0.0000 0.0000
03:31 14.3 11.8 85 315 0.3 1.4 1017.1 0.0000 0.0000
03:41 14.3 12 86 310 1.1 3.3 1017.1 0.0000 0.0000
03:51 14.3 12 86 310 0.8 3.3 1017 0.0000 0.0000
04:01 14.2 11.9 86 315 1.1 2.5 1017 0.0000 0.0000
04:12 14.2 11.9 86 287 1.1 2.5 1016.9 0.0000 0.0000
04:21 14.2 11.9 86 318 0.8 1.9 1016.7 0.0000 0.0000
04:31 14.2 11.9 86 319 0.8 2.5 1016.7 0.0000 0.0000
04:42 14.2 11.9 86 270 0.8 1.9 1016.7 0.0000 0.0000
04:52 14.2 12.1 87 326 0.8 2.2 1016.8 0.0000 0.0000
05:02 14.2 12.1 87 320 1.1 3.3 1016.8 0.0000 0.0000
05:11 14.1 12 87 329 0.8 2.2 1016.8 0.0000 0.0000
05:22 14 12 88 311 0.8 1.9 1016.7 0.0000 0.0000
05:32 13.9 11.9 88 316 1.4 3.6 1016.8 0.0000 0.0000
05:42 13.8 12 89 318 0.8 2.5 1016.6 0.0000 0.0000
05:52 13.8 12 89 294 1.1 4.7 1016.6 0.0000 0.0000
06:02 13.8 12.2 90 303 0.8 3.6 1016.7 0.0000 0.0000
06:12 13.8 12.2 90 318 0.8 2.2 1016.6 0.0000 0.0000
06:22 13.8 12.2 90 317 0.8 1.9 1016.7 0.0000 0.0000
06:33 13.8 12.4 91 315 0.8 2.5 1016.6 0.0000 0.0000
06:42 13.9 12.5 91 306 0.8 2.2 1016.6 0.0000 0.0000
06:52 13.9 12.5 91 315 0.8 1.9 1016.5 0.0000 0.0000
07:03 13.9 12.5 91 322 0.8 1.9 1016.3 0.0000 0.0000
07:13 13.9 12.6 92 324 0.8 3.1 1016.5 0.0000 0.0000
07:23 13.9 12.6 92 322 1.1 2.5 1016.6 0.0000 0.0000
07:32 14.1 12.8 92 322 0.8 2.5 1016.3 0.0000 0.0000
07:43 14.2 13.1 93 308 0.8 1.9 1016.5 0.0000 0.0000
07:53 14.4 13.3 93 322 1.1 2.5 1016.6 0.0000 0.0000
08:03 14.6 13.5 93 309 0.8 3.1 1016.5 0.0000 0.0000
08:13 14.8 13.5 92 317 1.1 3.1 1016.8 0.0000 0.0000
08:23 14.9 13.6 92 302 0.8 2.2 1016.6 0.0000 0.0000
08:33 15 13.7 92 270 1.1 3.3 1016.6 0.0000 0.0000
08:43 15.4 14.1 92 319 0.8 2.2 1016.5 0.0000 0.0000
08:54 15.5 14 91 257 1.1 3.6 1016.7 0.0000 0.0000
09:03 15.5 14 91 315 1.1 3.3 1016.6 0.0000 0.0000
09:13 15.5 13.9 90 315 1.1 5.8 1016.6 0.0000 0.0000
09:23 15.7 14.2 91 312 1.1 4.4 1016.8 0.0000 0.0000
09:34 15.7 14.1 90 318 1.4 3.6 1016.7 0.0000 0.0000
09:43 15.7 14.1 90 321 1.1 2.5 1016.7 0.0000 0.0000
09:53 16 14.4 90 315 1.1 2.5 1016.6 0.0000 0.0000
10:04 16.1 14.5 90 325 1.1 3.6 1016.5 0.0000 0.0000
10:14 16.6 14.8 89 324 1.1 3.1 1016.6 0.0000 0.0000
10:24 16.5 14.2 86 320 1.4 5.3 1016.5 0.0000 0.0000
10:34 16.5 14 85 304 1.4 4.7 1016.7 0.0000 0.0000
10:44 16.6 14.1 85 307 1.4 3.6 1016.7 0.0000 0.0000
10:54 16.8 14.1 84 321 0.8 2.5 1016.7 0.0000 0.0000
11:04 17 14.1 83 282 0.8 3.1 1016.5 0.0000 0.0000
11:14 17 14.1 83 311 1.4 4.4 1016.4 0.0000 0.0000
11:26 17.1 14.2 83 303 1.4 7.5 1016.7 0.0000 0.0000
11:36 17.4 14.3 82 315 1.1 2.5 1016.8 0.0000 0.0000
11:46 17.4 14.3 82 311 1.1 3.1 1016.7 0.0000 0.0000
11:56 17.5 14.4 82 323 1.1 3.1 1016.9 0.0000 0.0000
12:07 17.8 14.3 80 315 1.9 3.6 1016.6 0.0000 0.0000
12:16 18 14.3 79 306 1.4 4.7 1016.6 0.0000 0.0000
12:26 18.3 14.6 79 315 0.8 2.2 1016.5 0.0000 0.0000
12:37 18.5 14.4 77 307 1.1 3.1 1016.6 0.0000 0.0000
12:47 18.7 14.4 76 319 1.1 4.7 1016.5 0.0000 0.0000
12:56 19.1 14.8 76 232 1.4 3.6 1016.6 0.0000 0.0000
13:06 19.1 14.6 75 276 1.4 5.3 1016.6 0.0000 0.0000
13:17 19.4 14.7 74 311 1.1 2.5 1016.6 0.0000 0.0000
13:27 19.3 14.6 74 245 1.4 5.3 1016.5 0.0000 0.0000
13:36 19.8 14.4 71 249 1.9 5.3 1016.5 0.0000 0.0000
13:47 19.8 14.2 70 263 1.4 4.2 1016.7 0.0000 0.0000
13:56 20 14.1 69 270 1.1 3.3 1016.7 0.0000 0.0000
14:07 20.1 14.2 69 329 1.1 3.6 1016.8 0.0000 0.0000
14:17 20.1 14.2 69 286 1.4 4.4 1016.8 0.0000 0.0000
14:27 20.5 13.9 66 249 1.9 4.7 1016.8 0.0000 0.0000
14:37 20.3 14 67 304 1.4 4.7 1016.9 0.0000 0.0000
14:47 20.1 13.8 67 291 1.9 4.2 1016.8 0.0000 0.0000
14:58 19.9 13.8 68 270 1.4 4.4 1017 0.0000 0.0000
15:07 20.2 13.9 67 305 1.4 4.4 1017.2 0.0000 0.0000
15:17 20.2 13.9 67 270 1.4 4.7 1017.1 0.0000 0.0000
15:27 20.2 13.7 66 278 1.4 4.7 1017.3 0.0000 0.0000
15:38 20.3 13.7 66 260 1.1 3.3 1017.3 0.0000 0.0000
15:48 20.2 13.4 65 317 1.1 3.3 1017.4 0.0000 0.0000
15:57 20.2 13.4 65 236 2.5 6.7 1017.4 0.0000 0.0000
16:08 20.1 13.3 65 239 1.4 5.6 1017.3 0.0000 0.0000
16:18 20 13.5 66 279 1.1 3.6 1017.2 0.0000 0.0000
16:28 20.3 13.5 65 246 1.1 4.4 1017.2 0.0000 0.0000
16:38 20.2 13.7 66 270 0.8 3.3 1017.3 0.0000 0.0000
16:48 20.1 13.3 65 229 1.4 4.4 1017.2 0.0000 0.0000
16:58 20 13.2 65 315 1.4 4.2 1017.3 0.0000 0.0000
17:08 20.2 13.2 64 275 1.9 4.7 1017.3 0.0000 0.0000
17:19 20.2 13.4 65 313 1.4 3.6 1017.3 0.0000 0.0000
17:28 20.2 13.2 64 284 1.4 4.2 1017.3 0.0000 0.0000
17:38 20.2 13.4 65 288 1.1 3.6 1017.1 0.0000 0.0000
17:48 20.1 13.1 64 286 1.4 3.3 1017.2 0.0000 0.0000
17:59 19.9 13.1 65 289 1.1 4.4 1017.3 0.0000 0.0000
18:08 19.5 12.5 64 306 1.4 4.7 1017.2 0.0000 0.0000
18:18 19.5 13 66 260 1.1 3.6 1017.4 0.0000 0.0000
18:29 19.4 12.9 66 270 1.1 3.6 1017.5 0.0000 0.0000
18:39 19.2 12.7 66 270 1.1 2.2 1017.6 0.0000 0.0000
18:47 18.9 12.6 67 270 1.1 3.3 1017.5 0.0000 0.0000
18:58 18.7 12.7 68 270 1.1 4.2 1017.6 0.0000 0.0000
19:09 18.4 12.4 68 302 1.1 4.2 1017.5 0.0000 0.0000
19:19 18.1 12.3 69 325 1.4 4.2 1017.5 0.0000 0.0000
19:29 18 12.2 69 310 1.1 3.6 1017.5 0.0000 0.0000
19:39 17.9 12.1 69 319 1.4 3.3 1017.7 0.0000 0.0000
19:49 17.7 12.2 70 300 1.1 3.6 1017.8 0.0000 0.0000
19:59 17.5 12 70 303 1.1 3.1 1017.7 0.0000 0.0000
20:09 17.3 12 71 312 1.1 3.3 1017.7 0.0000 0.0000
20:19 17.1 12 72 315 1.1 3.1 1017.8 0.0000 0.0000
20:29 16.8 11.7 72 315 0.8 2.2 1017.8 0.0000 0.0000
20:39 16.6 11.5 72 315 0.8 2.5 1017.7 0.0000 0.0000
20:50 16.3 11.5 73 304 0.8 2.2 1017.9 0.0000 0.0000
21:00 16.1 11.5 74 323 1.1 2.2 1017.8 0.0000 0.0000
21:09 16 11.6 75 297 0.8 2.5 1017.8 0.0000 0.0000
21:19 15.9 11.5 75 295 0.8 2.5 1017.9 0.0000 0.0000
21:30 15.9 11.7 76 286 0.8 3.1 1017.7 0.0000 0.0000
21:40 15.7 11.5 76 309 1.1 2.5 1017.9 0.0000 0.0000
21:49 15.6 11.4 76 315 1.1 2.5 1018 0.0000 0.0000
22:00 15.4 11.2 76 315 1.1 2.2 1018.1 0.0000 0.0000
22:10 15.2 11.2 77 310 0.8 2.5 1017.9 0.0000 0.0000
22:20 15 11 77 321 0.8 3.1 1018.1 0.0000 0.0000
22:30 14.9 11.1 78 312 1.1 2.5 1018 0.0000 0.0000
22:40 14.9 11.1 78 315 0.8 2.5 1018.1 0.0000 0.0000
22:50 14.8 11.2 79 317 0.8 2.2 1018.2 0.0000 0.0000
23:00 14.8 11.2 79 317 0.8 2.2 1018.2 0.0000 0.0000
23:11 14.8 11.4 80 315 0.3 1.9 1018.1 0.0000 0.0000
23:20 14.7 11.1 79 317 0.8 1.9 1018.1 0.0000 0.0000
23:30 14.6 11.2 80 326 0.3 1.4 1018.2 0.0000 0.0000
23:40 14.6 11.2 80 315 0.3 1.1 1018 0.0000 0.0000
23:51 14.6 11.2 80 324 1.1 3.6 1017.9 0.0000 0.0000

DAY STATISTIC

2019-07-16
TEMPERATURE
AVERAGE
16.5
HIGH
20.5
14:27
LOW
13.8
05:42
PRESSURE
AVERAGE
1017.1
HIGH
1018.2
22:50
LOW
1016.3
07:03
DEWPOINT
AVERAGE
12.8
HIGH
14.8
10:14
LOW
11.0
22:20
HUMIDITY
AVERAGE
79
HIGH
93
07:43
LOW
64
17:08
WIND SPEED
AVERAGE
1.1
HIGH
2.5
15:57
WIND GUST
AVERAGE
3.3
HIGH
7.5
11:26
WIND DIRECTION
PREVAILING
NW
75.4%
N
0.0
NE
0.0
E
0.0
SE
0.0
S
0.0
SW
4.2
W
20.4
NW
75.4
PRECIPITATION
RAIN HOUR
0.0
RAIN DAY
0.0
TEMPERATURE (°C)
LOW
13.8
HIGH
20.5
AVERAGE
16.5
PRESSURE (hpa)
LOW
1016.3
HIGH
1018.2
AVERAGE
1017.1
DEVICE